createdAt,value
2023-05-04T00:00:55.817Z,8.75
2023-05-04T00:06:00.328Z,8.70
2023-05-04T00:11:03.439Z,9.13
2023-05-04T00:16:08.573Z,8.90
2023-05-04T00:21:15.101Z,9.35
2023-05-04T00:26:18.293Z,8.45
2023-05-04T00:31:22.055Z,8.80
2023-05-04T00:36:26.755Z,8.98
2023-05-04T00:41:29.872Z,8.70
2023-05-04T00:46:33.635Z,9.02
2023-05-04T00:51:38.379Z,8.07
2023-05-04T00:56:43.318Z,8.88
2023-05-04T01:01:46.428Z,9.07
2023-05-04T01:06:53.868Z,9.52
2023-05-04T01:11:59.930Z,8.30
2023-05-04T01:17:05.226Z,8.00
2023-05-04T01:22:09.761Z,8.35
2023-05-04T01:27:19.797Z,8.40
2023-05-04T01:32:23.527Z,9.25
2023-05-04T01:37:28.098Z,9.25
2023-05-04T01:42:31.217Z,8.85
2023-05-04T01:47:34.370Z,8.57
2023-05-04T01:52:38.882Z,9.05
2023-05-04T01:57:42.144Z,9.60
2023-05-04T02:02:45.432Z,8.13
2023-05-04T02:07:54.646Z,9.13
2023-05-04T02:12:57.855Z,8.63
2023-05-04T02:18:01.459Z,8.88
2023-05-04T02:23:06.262Z,8.80
2023-05-04T02:28:09.416Z,9.00
2023-05-04T02:33:14.196Z,8.48
2023-05-04T02:38:19.569Z,9.02
2023-05-04T02:43:22.706Z,8.73
2023-05-04T02:48:25.971Z,9.32
2023-05-04T02:53:30.865Z,8.55
2023-05-04T02:58:33.996Z,8.88
2023-05-04T03:03:37.308Z,8.25
2023-05-04T03:08:41.863Z,9.30
2023-05-04T03:13:44.957Z,8.93
2023-05-04T03:18:48.138Z,9.10
2023-05-04T03:23:52.950Z,8.90
2023-05-04T03:28:56.168Z,9.55
2023-05-04T03:33:59.538Z,9.63
2023-05-04T03:39:04.555Z,9.30
2023-05-04T03:44:07.959Z,9.15
2023-05-04T03:49:11.943Z,9.15
2023-05-04T03:54:16.653Z,9.18
2023-05-04T03:59:20.063Z,9.40
2023-05-04T04:04:23.654Z,9.45
2023-05-04T04:09:29.060Z,10.02
2023-05-04T04:14:32.281Z,9.50
2023-05-04T04:19:35.373Z,9.23
2023-05-04T04:24:39.965Z,10.32
2023-05-04T04:29:43.056Z,10.82
2023-05-04T04:34:46.257Z,9.52
2023-05-04T04:39:50.756Z,9.38
2023-05-04T04:44:54.460Z,10.55
2023-05-04T04:49:57.639Z,10.52
2023-05-04T04:55:02.177Z,10.52
2023-05-04T05:00:09.355Z,9.27
2023-05-04T05:05:12.972Z,10.02
2023-05-04T05:10:17.943Z,10.55
2023-05-04T05:15:21.232Z,9.45
2023-05-04T05:20:24.445Z,10.25
2023-05-04T05:25:29.070Z,10.65
2023-05-04T05:30:32.260Z,9.82
2023-05-04T05:35:35.474Z,10.40
2023-05-04T05:40:39.971Z,10.70
2023-05-04T05:45:43.125Z,10.57
2023-05-04T05:50:46.602Z,10.05
2023-05-04T05:55:51.162Z,10.27
2023-05-04T06:00:54.352Z,9.60
2023-05-04T06:05:57.507Z,9.25
2023-05-04T06:11:01.985Z,9.18
2023-05-04T06:16:05.504Z,9.63
2023-05-04T06:21:08.827Z,8.63
2023-05-04T06:26:13.344Z,7.90
2023-05-04T06:31:16.434Z,8.60
2023-05-04T06:36:19.601Z,15.13
2023-05-04T06:41:24.211Z,8.90
2023-05-04T06:46:27.650Z,7.57
2023-05-04T06:51:30.820Z,8.60
2023-05-04T06:56:35.290Z,9.10
2023-05-04T07:01:38.462Z,8.73
2023-05-04T07:06:41.641Z,8.55
2023-05-04T07:11:46.085Z,9.68
2023-05-04T07:16:49.413Z,9.20
2023-05-04T07:21:52.595Z,9.45
2023-05-04T07:26:57.137Z,8.60
2023-05-04T07:32:00.302Z,9.75
2023-05-04T07:37:04.990Z,8.95
2023-05-04T07:42:11.262Z,8.45
2023-05-04T07:47:14.358Z,8.43
2023-05-04T07:52:17.461Z,8.07
2023-05-04T07:57:22.189Z,7.20
2023-05-04T08:02:25.795Z,7.88
2023-05-04T08:07:28.956Z,7.82
2023-05-04T08:12:33.472Z,7.45
2023-05-04T08:17:38.033Z,8.27
2023-05-04T08:22:42.388Z,7.50
2023-05-04T08:27:47.849Z,7.03
2023-05-04T08:32:53.041Z,8.00
2023-05-04T08:37:56.378Z,7.32
2023-05-04T08:43:00.935Z,7.40
2023-05-04T08:48:04.743Z,6.80
2023-05-04T08:53:08.371Z,6.30
2023-05-04T08:58:13.285Z,5.80
2023-05-04T09:03:17.049Z,6.72
2023-05-04T09:08:21.054Z,6.78
2023-05-04T09:13:25.620Z,6.20
2023-05-04T09:18:37.150Z,5.80
2023-05-04T09:23:47.029Z,6.65
2023-05-04T09:28:51.688Z,6.78
2023-05-04T09:33:54.812Z,6.45
2023-05-04T09:38:57.903Z,6.78
2023-05-04T09:44:03.463Z,13.60
2023-05-04T09:49:06.781Z,7.57
2023-05-04T09:54:09.908Z,6.63
2023-05-04T09:59:14.719Z,5.82
2023-05-04T10:04:17.891Z,6.35
2023-05-04T10:09:20.960Z,6.90
2023-05-04T10:14:25.542Z,6.70
2023-05-04T10:19:40.792Z,6.80
2023-05-04T10:24:54.804Z,14.80
2023-05-04T10:30:01.356Z,6.78
2023-05-04T10:35:08.223Z,6.38
2023-05-04T10:40:12.511Z,5.82
2023-05-04T10:45:18.791Z,6.28
2023-05-04T10:50:21.994Z,5.82
2023-05-04T10:55:26.082Z,5.75
2023-05-04T11:00:38.170Z,5.55
2023-05-04T11:05:41.741Z,5.68
2023-05-04T11:10:44.922Z,6.25
2023-05-04T11:15:50.201Z,6.28
2023-05-04T11:20:53.332Z,5.25
2023-05-04T11:25:56.565Z,6.28
2023-05-04T11:31:01.142Z,6.50
2023-05-04T11:36:06.315Z,6.85
2023-05-04T11:41:09.685Z,6.47
2023-05-04T11:46:16.409Z,6.72
2023-05-04T11:51:23.446Z,7.30
2023-05-04T11:56:26.705Z,6.13
2023-05-04T12:01:37.524Z,7.25
2023-05-04T12:11:43.511Z,6.20
2023-05-04T12:16:56.216Z,7.68
2023-05-04T12:21:59.720Z,6.80
2023-05-04T12:27:02.907Z,6.60
2023-05-04T12:32:07.774Z,7.18
2023-05-04T12:37:11.759Z,7.38
2023-05-04T12:42:14.920Z,7.13
2023-05-04T12:47:20.968Z,7.63
2023-05-04T12:52:24.109Z,6.30
2023-05-04T12:57:27.264Z,6.85
2023-05-04T13:02:31.989Z,7.97
2023-05-04T13:07:35.193Z,6.57
2023-05-04T13:12:38.771Z,6.97
2023-05-04T13:17:44.450Z,6.40
2023-05-04T13:22:47.955Z,7.10
2023-05-04T13:27:51.202Z,7.10
2023-05-04T13:32:55.816Z,8.75
2023-05-04T13:37:58.936Z,7.68
2023-05-04T13:43:02.113Z,8.43
2023-05-04T13:48:06.733Z,7.50
2023-05-04T13:53:10.961Z,8.98
2023-05-04T13:58:14.154Z,8.80
2023-05-04T14:03:18.997Z,8.30
2023-05-04T14:08:22.169Z,8.85
2023-05-04T14:13:25.346Z,9.35
2023-05-04T14:18:32.129Z,9.55
2023-05-04T14:23:35.359Z,8.25
2023-05-04T14:28:38.466Z,8.40
2023-05-04T14:33:43.270Z,7.75
2023-05-04T14:38:46.476Z,9.20
2023-05-04T14:43:49.540Z,9.40
2023-05-04T14:48:54.206Z,8.45
2023-05-04T14:53:59.667Z,10.50
2023-05-04T14:59:02.803Z,8.40
2023-05-04T15:04:07.613Z,8.65
2023-05-04T15:09:10.822Z,9.00
2023-05-04T15:14:13.924Z,10.35
2023-05-04T15:19:18.423Z,9.48
2023-05-04T15:24:21.579Z,9.48
2023-05-04T15:29:24.757Z,8.00
2023-05-04T15:34:29.298Z,10.73
2023-05-04T15:39:32.541Z,9.65
2023-05-04T15:44:35.840Z,8.88
2023-05-04T15:49:40.295Z,8.82
2023-05-04T15:54:43.448Z,9.60
2023-05-04T15:59:47.713Z,9.48
2023-05-04T16:04:52.515Z,8.35
2023-05-04T16:09:55.719Z,9.30
2023-05-04T16:14:58.836Z,9.80
2023-05-04T16:20:03.784Z,9.95
2023-05-04T16:25:08.932Z,10.30
2023-05-04T16:30:15.552Z,9.25
2023-05-04T16:35:20.258Z,10.38
2023-05-04T16:40:24.064Z,9.25
2023-05-04T16:45:31.378Z,9.90
2023-05-04T16:50:35.979Z,8.88
2023-05-04T16:55:39.211Z,7.80
2023-05-04T17:00:42.683Z,7.93
2023-05-04T17:05:47.450Z,8.73
2023-05-04T17:10:50.594Z,8.30
2023-05-04T17:15:53.674Z,7.35
2023-05-04T17:20:58.230Z,7.15
2023-05-04T17:26:01.850Z,7.32
2023-05-04T17:31:04.931Z,7.47
2023-05-04T17:36:11.970Z,7.45
2023-05-04T17:41:16.135Z,7.25
2023-05-04T17:46:19.315Z,5.82
2023-05-04T17:51:23.906Z,5.75
2023-05-04T17:56:27.273Z,5.00
2023-05-04T18:01:30.810Z,5.28
2023-05-04T18:06:36.770Z,5.28
2023-05-04T18:11:40.024Z,5.43
2023-05-04T18:16:43.222Z,5.15
2023-05-04T18:21:47.734Z,6.03
2023-05-04T18:26:53.793Z,5.68
2023-05-04T18:31:56.884Z,5.30
2023-05-04T18:37:01.556Z,5.38
2023-05-04T18:42:04.827Z,5.80
2023-05-04T18:47:08.605Z,5.78
2023-05-04T18:52:13.111Z,6.13
2023-05-04T18:57:16.209Z,5.80
2023-05-04T19:02:19.370Z,5.70
2023-05-04T19:07:24.022Z,5.88
2023-05-04T19:12:27.123Z,5.60
2023-05-04T19:17:30.385Z,6.30
2023-05-04T19:22:34.962Z,6.65
2023-05-04T19:27:38.313Z,6.13
2023-05-04T19:32:41.501Z,6.35
2023-05-04T19:37:46.413Z,5.72
2023-05-04T19:42:49.614Z,7.03
2023-05-04T19:47:52.916Z,5.30
2023-05-04T19:52:57.477Z,5.68
2023-05-04T19:58:00.613Z,5.85
2023-05-04T20:03:04.021Z,10.73
2023-05-04T20:08:08.495Z,7.05
2023-05-04T20:13:11.778Z,6.63
2023-05-04T20:18:15.369Z,6.60
2023-05-04T20:23:19.814Z,6.07
2023-05-04T20:28:23.015Z,6.15
2023-05-04T20:33:26.251Z,6.72
2023-05-04T20:38:30.808Z,6.68
2023-05-04T20:43:33.908Z,5.40
2023-05-04T20:48:37.072Z,6.70
2023-05-04T20:53:41.555Z,6.30
2023-05-04T20:58:44.619Z,6.35
2023-05-04T21:03:47.983Z,6.00
2023-05-04T21:08:52.761Z,7.10
2023-05-04T21:13:55.918Z,6.40
2023-05-04T21:18:59.285Z,5.85
2023-05-04T21:24:03.816Z,6.78
2023-05-04T21:29:06.948Z,5.88
2023-05-04T21:34:10.182Z,6.18
2023-05-04T21:39:16.774Z,6.72
2023-05-04T21:44:19.908Z,6.60
2023-05-04T21:49:23.248Z,6.35
2023-05-04T21:54:27.766Z,7.28
2023-05-04T21:59:30.977Z,6.60
2023-05-04T22:04:34.148Z,6.93
2023-05-04T22:09:39.015Z,6.22
2023-05-04T22:14:42.618Z,6.88
2023-05-04T22:19:45.983Z,6.32
2023-05-04T22:24:50.671Z,6.68
2023-05-04T22:29:53.808Z,6.22
2023-05-04T22:34:57.672Z,6.95
2023-05-04T22:40:04.593Z,6.75
2023-05-04T22:45:08.284Z,6.57
2023-05-04T22:50:11.679Z,6.30
2023-05-04T22:55:16.294Z,6.93
2023-05-04T23:00:19.828Z,6.57
2023-05-04T23:05:23.057Z,7.40
2023-05-04T23:10:27.586Z,7.70
2023-05-04T23:15:30.796Z,7.50
2023-05-04T23:20:33.921Z,7.35
2023-05-04T23:25:38.427Z,8.10
2023-05-04T23:30:41.538Z,6.70
2023-05-04T23:35:44.724Z,6.85
2023-05-04T23:40:49.915Z,6.60
2023-05-04T23:45:59.480Z,7.43
2023-05-04T23:51:04.768Z,7.97
2023-05-04T23:56:09.565Z,7.68
